Time;durP1;ratioP1;P1;durP2;ratioP2;P2;SDS_P1;SDS_P2;PMS_P1;PMS_P2;Temp;Humidity;BMP_temperature;BMP_pressure;BME280_temperature;BME280_humidity;BME280_pressure;Samples;Min_cycle;Max_cycle;Signal;HPM_P1;HPM_P2
2021/09/21 00:00:25;;;;;;;9.48;5.65;;;14.40;57.10;;;;;;4917474;29;20039;-96
2021/09/21 00:06:15;;;;;;;8.90;5.57;;;14.40;57.30;;;;;;4906406;29;20038;-96
2021/09/21 00:12:05;;;;;;;9.60;5.60;;;14.40;57.40;;;;;;4912693;29;20035;-94
2021/09/21 00:17:55;;;;;;;9.20;5.95;;;14.30;57.50;;;;;;4901558;29;20406;-96
2021/09/21 00:23:44;;;;;;;11.30;6.00;;;14.30;57.60;;;;;;4900600;29;20048;-94
2021/09/21 00:29:32;;;;;;;9.05;5.47;;;14.20;57.70;;;;;;4901145;29;20083;-95
2021/09/21 00:35:21;;;;;;;11.55;6.20;;;14.20;57.90;;;;;;4900352;29;20039;-95
2021/09/21 00:41:11;;;;;;;9.35;5.63;;;14.10;58.00;;;;;;4900692;29;20036;-94
2021/09/21 00:51:02;;;;;;;10.60;6.07;;;14.10;58.10;;;;;;4900442;29;20535;-94
2021/09/21 00:56:51;;;;;;;9.40;5.97;;;14.00;58.20;;;;;;4900203;29;20128;-94
2021/09/21 01:02:41;;;;;;;10.77;6.07;;;13.90;58.20;;;;;;4900346;29;20496;-95
2021/09/21 01:08:44;;;;;;;10.50;6.30;;;13.80;58.40;;;;;;4899945;29;20618;-94
2021/09/21 01:14:36;;;;;;;9.50;6.40;;;13.80;58.70;;;;;;4899848;29;20027;-93
2021/09/21 01:20:27;;;;;;;9.93;6.32;;;13.70;58.80;;;;;;4899938;29;20040;-94
2021/09/21 01:26:18;;;;;;;10.65;6.10;;;13.70;59.10;;;;;;4900149;29;20147;-95
2021/09/21 01:32:06;;;;;;;10.50;6.28;;;13.70;59.10;;;;;;4900304;29;20414;-95
2021/09/21 01:37:55;;;;;;;9.90;6.38;;;13.70;59.30;;;;;;4900505;29;20492;-95
2021/09/21 01:43:45;;;;;;;10.82;6.50;;;13.70;59.50;;;;;;4911349;29;20129;-94
2021/09/21 01:53:33;;;;;;;10.70;6.95;;;13.70;59.60;;;;;;4900498;29;20051;-95
2021/09/21 01:59:22;;;;;;;11.95;7.10;;;13.70;59.80;;;;;;4899971;29;20389;-95
2021/09/21 02:05:12;;;;;;;9.88;6.80;;;13.60;59.80;;;;;;4900116;29;20044;-94
2021/09/21 02:11:01;;;;;;;12.07;6.47;;;13.60;60.00;;;;;;4899624;29;20087;-95
2021/09/21 02:16:54;;;;;;;12.35;7.13;;;13.60;60.10;;;;;;4899817;29;20120;-96
2021/09/21 02:22:43;;;;;;;11.23;7.22;;;13.50;60.00;;;;;;4903294;29;20095;-96
2021/09/21 02:28:40;;;;;;;9.52;6.40;;;13.50;60.10;;;;;;4903525;29;20385;-96
2021/09/21 02:34:29;;;;;;;9.90;6.95;;;13.50;60.30;;;;;;4903302;29;20376;-95
2021/09/21 02:40:18;;;;;;;10.90;7.53;;;13.50;60.40;;;;;;4902973;29;20083;-96
2021/09/21 02:46:06;;;;;;;10.55;7.40;;;13.40;60.40;;;;;;4902584;29;20028;-94
2021/09/21 02:55:57;;;;;;;10.82;7.55;;;13.40;60.70;;;;;;4902705;29;20047;-94
2021/09/21 03:01:45;;;;;;;12.40;7.72;;;13.40;60.90;;;;;;4902313;29;20077;-93
2021/09/21 03:07:41;;;;;;;12.07;7.97;;;13.30;61.00;;;;;;4911009;29;20031;-96
2021/09/21 03:19:27;;;;;;;10.95;7.55;;;13.30;61.20;;;;;;4914304;29;20064;-94
2021/09/21 03:25:15;;;;;;;12.35;7.90;;;13.30;61.40;;;;;;4902911;29;20604;-94
2021/09/21 03:31:04;;;;;;;10.80;7.18;;;13.30;61.40;;;;;;4901711;29;20107;-93
2021/09/21 03:36:53;;;;;;;11.18;7.60;;;13.30;62.20;;;;;;4901359;29;20496;-92
2021/09/21 03:42:42;;;;;;;10.98;6.90;;;13.30;61.60;;;;;;4901246;29;20095;-92
2021/09/21 03:48:30;;;;;;;11.07;7.40;;;13.30;61.70;;;;;;4901268;29;20028;-91
2021/09/21 03:58:22;;;;;;;11.43;7.50;;;13.30;61.70;;;;;;4900748;29;20516;-92
2021/09/21 04:04:33;;;;;;;10.80;7.43;;;13.30;61.70;;;;;;4900724;29;20119;-92
2021/09/21 04:10:25;;;;;;;12.85;8.10;;;13.30;61.80;;;;;;4900572;29;20044;-94
2021/09/21 04:16:35;;;;;;;12.00;8.20;;;13.30;61.80;;;;;;4900847;29;20035;-95
2021/09/21 04:22:24;;;;;;;11.20;7.63;;;13.30;61.90;;;;;;4901119;29;20035;-93
2021/09/21 04:28:13;;;;;;;11.10;8.07;;;13.20;61.90;;;;;;4901242;29;20104;-92
2021/09/21 04:34:02;;;;;;;12.07;7.90;;;13.30;62.10;;;;;;4902132;29;20038;-95
2021/09/21 04:39:51;;;;;;;11.15;8.07;;;13.30;62.30;;;;;;4902049;29;20036;-95
2021/09/21 04:45:39;;;;;;;12.73;8.43;;;13.20;62.20;;;;;;4900788;29;20047;-95
2021/09/21 04:51:36;;;;;;;11.23;7.93;;;13.20;62.40;;;;;;4910570;29;20044;-94
2021/09/21 05:01:28;;;;;;;11.30;8.13;;;13.20;62.50;;;;;;4900143;29;20035;-93
2021/09/21 05:07:16;;;;;;;10.55;7.75;;;13.20;62.70;;;;;;4900207;29;20089;-93
2021/09/21 05:13:06;;;;;;;11.18;8.20;;;13.20;62.80;;;;;;4899758;29;20034;-93
2021/09/21 05:19:14;;;;;;;10.38;7.95;;;13.20;63.00;;;;;;4899675;29;20085;-90
2021/09/21 05:25:03;;;;;;;14.00;8.02;;;13.30;63.10;;;;;;4899257;29;20115;-88
2021/09/21 05:30:55;;;;;;;12.02;7.30;;;13.40;63.10;;;;;;4898845;29;20051;-88
2021/09/21 05:36:44;;;;;;;11.25;7.80;;;13.40;63.00;;;;;;4898776;29;20046;-89
2021/09/21 05:42:36;;;;;;;16.90;7.88;;;13.50;62.90;;;;;;4898910;29;20033;-88
2021/09/21 05:48:24;;;;;;;12.45;8.25;;;13.60;63.00;;;;;;4898364;29;20492;-87
2021/09/21 06:05:13;;;;;;;10.75;8.02;;;13.90;62.60;;;;;;4807985;29;20538;-85
2021/09/21 09:33:35;;;;;;;10.32;6.10;;;18.30;51.00;;;;;;5844640;23;20105;-88
2021/09/21 09:46:39;;;;;;;;;;;;;;;;;;;;;
2021/09/21 10:33:28;;;;;;;9.15;4.63;;;22.00;44.70;;;;;;5478487;23;20048;-92
2021/09/21 10:38:31;;;;;;;7.95;4.30;;;22.20;44.10;;;;;;5929229;23;20040;-86
2021/09/21 10:44:21;;;;;;;7.30;3.88;;;22.50;44.10;;;;;;4882779;29;20116;-87
2021/09/21 10:57:09;;;;;;;7.47;4.22;;;23.30;43.20;;;;;;4898493;23;20053;-88
2021/09/21 12:12:46;;;;;;;8.63;3.75;;;29.10;34.00;;;;;;4894103;23;20137;-91
2021/09/21 15:22:24;;;;;;;9.27;4.20;;;24.30;30.40;;;;;;5706548;24;21654;-91
2021/09/21 16:46:36;;;;;;;7.78;4.20;;;20.20;33.60;;;;;;702044;23;20315;-95
2021/09/21 17:41:57;;;;;;;11.43;6.75;;;16.10;39.40;;;;;;4865690;29;20072;-95
2021/09/21 17:47:46;;;;;;;9.93;6.63;;;15.80;40.40;;;;;;4864451;29;20040;-92
2021/09/21 17:54:42;;;;;;;9.90;6.47;;;15.60;41.20;;;;;;4873788;29;20094;-93
2021/09/21 18:10:42;;;;;;;18.75;12.68;;;14.90;43.10;;;;;;4870383;29;20053;-94
2021/09/21 18:16:41;;;;;;;15.43;11.50;;;14.80;43.70;;;;;;4870672;29;20062;-93
2021/09/21 18:22:48;;;;;;;16.98;12.88;;;14.60;44.40;;;;;;4870345;29;20032;-93
2021/09/21 18:28:37;;;;;;;16.35;11.32;;;14.40;45.00;;;;;;4872123;29;20105;-93
2021/09/21 18:34:27;;;;;;;16.38;10.27;;;14.30;45.50;;;;;;4874916;29;20049;-92
2021/09/21 18:40:15;;;;;;;12.55;8.73;;;14.10;46.10;;;;;;4874079;29;20041;-96
2021/09/21 18:52:48;;;;;;;13.82;9.90;;;13.80;47.40;;;;;;4860525;29;20045;-96
2021/09/21 18:58:39;;;;;;;18.13;14.05;;;13.70;48.00;;;;;;4853377;29;20073;-96
2021/09/21 19:04:35;;;;;;;12.93;10.05;;;13.50;48.50;;;;;;4858810;29;20041;-94
2021/09/21 19:10:26;;;;;;;13.65;10.15;;;13.40;49.00;;;;;;4855580;29;20045;-94
2021/09/21 19:16:14;;;;;;;14.15;10.48;;;13.30;49.70;;;;;;4856477;29;20157;-94
2021/09/21 19:22:06;;;;;;;16.48;12.55;;;13.10;50.20;;;;;;4859013;29;20051;-94
2021/09/21 19:27:55;;;;;;;22.42;15.80;;;13.00;50.60;;;;;;4856121;29;20053;-94
2021/09/21 19:33:47;;;;;;;21.35;14.38;;;12.90;51.10;;;;;;4856830;29;20068;-93
2021/09/21 19:39:37;;;;;;;15.88;11.25;;;12.80;51.50;;;;;;4851376;29;20036;-91
2021/09/21 19:42:05;;;;;;;14.95;11.38;;;12.70;51.60;;;;;;4850980;29;20058;-91
2021/09/21 19:47:55;;;;;;;15.80;11.05;;;12.60;52.10;;;;;;4867864;29;20040;-93
2021/09/21 19:53:45;;;;;;;13.40;10.35;;;12.50;52.60;;;;;;4867443;29;20081;-92
2021/09/21 19:59:35;;;;;;;13.77;10.98;;;12.30;53.20;;;;;;4867757;29;20113;-92
2021/09/21 20:05:27;;;;;;;17.27;12.77;;;12.20;53.70;;;;;;4868402;29;20073;-92
2021/09/21 20:11:15;;;;;;;19.10;12.82;;;12.10;54.30;;;;;;4867982;29;20048;-92
2021/09/21 20:17:05;;;;;;;16.02;11.95;;;12.10;54.90;;;;;;4869779;29;20054;-93
2021/09/21 20:22:54;;;;;;;14.20;10.20;;;12.10;55.20;;;;;;4866438;29;20032;-91
2021/09/21 20:28:43;;;;;;;22.17;14.15;;;12.00;55.50;;;;;;4866660;29;20032;-89
2021/09/21 20:34:44;;;;;;;20.75;14.82;;;12.00;55.70;;;;;;4863419;29;20036;-92
2021/09/21 20:40:32;;;;;;;15.30;11.27;;;11.90;56.00;;;;;;4868877;29;20493;-96
2021/09/21 20:53:07;;;;;;;13.82;10.32;;;11.70;56.70;;;;;;4868774;29;20044;-96
2021/09/21 21:16:19;;;;;;;16.55;12.43;;;11.40;57.70;;;;;;4848614;29;20017;-86
2021/09/21 21:22:07;;;;;;;17.00;13.60;;;11.30;58.10;;;;;;4824984;29;20041;-96
2021/09/21 21:27:56;;;;;;;18.55;13.77;;;11.10;58.40;;;;;;4823857;29;20098;-96
2021/09/21 21:33:44;;;;;;;17.55;13.65;;;11.00;58.80;;;;;;4824737;29;20182;-95
2021/09/21 21:39:31;;;;;;;17.85;13.80;;;10.90;59.20;;;;;;4862789;29;20161;-95
2021/09/21 21:49:20;;;;;;;17.65;13.48;;;10.60;59.60;;;;;;4862597;29;20378;-94
2021/09/21 21:55:12;;;;;;;18.15;14.13;;;10.50;60.00;;;;;;4862808;29;20097;-93
2021/09/21 22:01:01;;;;;;;18.05;14.68;;;10.40;60.40;;;;;;4862797;29;20550;-93
2021/09/21 22:06:50;;;;;;;17.40;14.55;;;10.30;60.80;;;;;;4862273;29;20040;-93
2021/09/21 22:12:39;;;;;;;17.67;13.68;;;10.20;61.20;;;;;;4861881;29;20070;-94
2021/09/21 22:18:29;;;;;;;17.00;14.10;;;10.20;61.80;;;;;;4862634;29;20056;-93
2021/09/21 22:24:17;;;;;;;16.40;13.68;;;10.10;61.90;;;;;;4862519;29;20036;-95
2021/09/21 22:30:09;;;;;;;16.95;14.48;;;10.00;62.30;;;;;;4862016;29;20064;-94
2021/09/21 22:35:57;;;;;;;17.60;15.45;;;9.90;62.50;;;;;;4862154;29;20033;-95
2021/09/21 22:41:46;;;;;;;19.60;16.42;;;9.80;62.70;;;;;;4866031;29;20521;-96
2021/09/21 22:51:30;;;;;;;18.88;15.23;;;9.70;63.00;;;;;;4865136;29;20057;-95
2021/09/21 22:57:19;;;;;;;18.88;14.95;;;9.60;63.20;;;;;;4864891;29;20033;-94
2021/09/21 23:03:07;;;;;;;20.70;15.57;;;9.50;63.60;;;;;;4864878;29;20161;-93
2021/09/21 23:08:57;;;;;;;19.60;15.75;;;9.50;63.90;;;;;;4865718;29;20037;-94
2021/09/21 23:14:46;;;;;;;18.17;14.88;;;9.40;64.10;;;;;;4865210;29;20037;-93
2021/09/21 23:20:37;;;;;;;19.98;15.15;;;9.30;64.40;;;;;;4864592;29;20113;-93
2021/09/21 23:26:26;;;;;;;19.20;15.88;;;9.20;64.60;;;;;;4864177;29;20057;-94
2021/09/21 23:32:14;;;;;;;18.83;15.25;;;9.20;65.00;;;;;;4864291;29;20092;-94
2021/09/21 23:38:03;;;;;;;21.02;17.20;;;9.10;65.20;;;;;;4864718;29;20098;-94
2021/09/21 23:43:52;;;;;;;19.55;16.02;;;9.10;65.40;;;;;;4864099;29;20066;-93
2021/09/21 23:53:36;;;;;;;18.77;15.52;;;9.10;66.00;;;;;;4863767;29;20090;-93
2021/09/21 23:59:25;;;;;;;18.63;15.65;;;9.10;66.30;;;;;;4863906;29;20049;-94
